Kralendijk, Bonaire, Dutch Antilles Cruise Port

Bonaire has consistently been ranked as the finest snorkeling and scuba diving destination in the Caribbean for two decades. This is because of the island's diligent stewardship of its marine resources. Since 1979, all the waters of Bonaire's coast have been legally protected.

Besides snorkeling and scuba diving, there is plenty more to be done here. Bonaire has trade winds that are usually steady and wash over the island. This creates ideal conditions for windsurfing. The sere beauty of this semi-desert landscape is home to an assortment of wildlife. Atop the rock formations of Washington Slagbaai you can find iguanas toasting themselves, while they watch a vast cloud of orange-pink flamingoes drift across the bone-white salt flats. The divi-divi trees bending into the surreal sculptures of the wind, and towering cacti represent the Caribbean's diverse ecology.

Another great thing about Bonaire is that it has a yearly average temperature of 82 degrees F (27.8 degrees C) with an average water temperature of 80 degrees F (26.7 degrees C). All year, Bonaire is not likely to see more than 22 inches (56 cm) of rain. This can be attributed to its nearly constant humidity of 76% and year round sunny forecast.

Cruise Deals Including Bonaire

Date Ship Nts Destination Inside Oceanview Balcony Suite Per Night
2021-10-20 Equinox 9 Southern Caribbean $ 1751 pp $ 1919 pp $ 4108 pp $ 5647 pp $ 123 pp/pd
2021-10-29 Equinox 9 Southern Caribbean $ 1719 pp $ 1807 pp $ 2119 pp $ 5495 pp $ 129 pp/pd
2021-11-10 Rotterdam 21 Southern Caribbean $ 3409 pp $ 3789 pp $ 4839 pp N/A $ 162 pp/pd
2021-11-15 Seven Seas Explorer 24 Eastern Caribbean N/A N/A N/A $ 11899 pp $ 496 pp/pd
2021-11-19 Equinox 9 Southern Caribbean $ 1663 pp $ 1775 pp $ 2191 pp $ 4463 pp $ 116 pp/pd
2021-11-21 Rotterdam 21 Southern Caribbean $ 3499 pp $ 3879 pp $ 4939 pp N/A $ 167 pp/pd
2021-11-22 Silhouette 11 Southern Caribbean $ 2105 pp $ 2196 pp $ 2765 pp $ 8141 pp $ 121 pp/pd
2021-11-23 Seven Seas Explorer 8 Eastern Caribbean N/A N/A N/A $ 4499 pp $ 562 pp/pd
2021-11-26 Quest 14 Caribbean $ 2399 pp $ 2699 pp $ 3099 pp $ 6399 pp $ 171 pp/pd
2021-11-27 Horizon 8 Southern Caribbean $ 564 pp $ 754 pp $ 969 pp $ 2618 pp $ 71 pp/pd
2021-11-28 Explorer Of The Seas 7 Southern Caribbean $ 1156 pp $ 1360 pp N/A $ 3675 pp $ 69 pp/pd
2021-12-01 Rotterdam 21 Southern Caribbean $ 3499 pp $ 3879 pp $ 4939 pp $ 11009 pp $ 167 pp/pd
2021-12-10 Enchanted Princess 20 Caribbean $ 2285 pp N/A $ 3445 pp $ 4898 pp $ 114 pp/pd
2021-12-11 Seabourn Odyssey 18 Caribbean N/A $ 7624 pp N/A $ 9124 pp $ 424 pp/pd
2021-12-12 Rotterdam 21 Southern Caribbean $ 3509 pp $ 4069 pp $ 5039 pp N/A $ 167 pp/pd
2021-12-13 Regal Princess 16 Caribbean $ 1548 pp N/A $ 2112 pp $ 3698 pp $ 97 pp/pd
2021-12-18 Seabourn Odyssey 21 Caribbean N/A $ 9604 pp N/A $ 11604 pp $ 457 pp/pd
2021-12-20 Seven Seas Explorer 14 Eastern Caribbean N/A N/A N/A $ 9549 pp $ 682 pp/pd
2021-12-21 Regal Princess 16 Caribbean $ 1799 pp N/A $ 2198 pp $ 4101 pp $ 112 pp/pd
2021-12-23 Riviera 12 Southern Caribbean N/A N/A $ 4449 pp $ 11899 pp $ 371 pp/pd
2021-12-24 Silhouette 11 Southern Caribbean $ 2948 pp $ 3140 pp $ 3508 pp $ 7656 pp $ 193 pp/pd
2021-12-26 Explorer Of The Seas 7 Southern Caribbean N/A N/A N/A $ 2905 pp $ 97 pp/pd
2021-12-27 Getaway 9 Caribbean N/A N/A $ 1829 pp $ 1779 pp $ 198 pp/pd
2021-12-29 Regal Princess 16 Caribbean $ 1629 pp N/A $ 2247 pp $ 3698 pp $ 102 pp/pd
2022-01-02 Grandeur Of The Seas 7 Southern Caribbean $ 626 pp $ 876 pp N/A $ 2774 pp $ 42 pp/pd
2022-01-03 Constellation 11 Southern Caribbean $ 1887 pp $ 2047 pp $ 2527 pp $ 18415 pp $ 110 pp/pd
2022-01-04 Riviera 73 World Cruise N/A N/A $ 24349 pp N/A $ 334 pp/pd
2022-01-05 Getaway 9 Caribbean $ 2785 pp $ 1119 pp $ 1599 pp $ 1729 pp $ 124 pp/pd
2022-01-06 Regal Princess 16 Caribbean $ 1448 pp N/A $ 2067 pp $ 3561 pp $ 91 pp/pd
2022-01-08 Horizon 8 Southern Caribbean $ 664 pp $ 804 pp $ 1149 pp $ 2918 pp $ 83 pp/pd
2022-01-09 Grandeur Of The Seas 14 Southern Caribbean $ 2453 pp $ 2965 pp N/A $ 8722 pp $ 71 pp/pd
2022-01-12 Nieuw Statendam 21 Southern Caribbean $ 3279 pp $ 4039 pp $ 4989 pp $ 6889 pp $ 156 pp/pd
2022-01-15 Freedom 8 Southern Caribbean $ 554 pp $ 724 pp $ 1099 pp $ 2429 pp $ 69 pp/pd
2022-01-16 Epic 7 Caribbean $ 879 pp N/A $ 1029 pp $ 1629 pp $ 126 pp/pd
2022-01-17 Crystal Serenity 132 World Cruise N/A N/A $ 57751 pp $ 90491 pp $ 438 pp/pd
2022-01-19 Enchanted Princess 20 Caribbean $ 2394 pp N/A $ 3827 pp $ 6341 pp $ 120 pp/pd
2022-01-21 Equinox 9 Southern Caribbean $ 919 pp $ 969 pp $ 1679 pp $ 6895 pp $ 102 pp/pd
2022-01-22 Horizon 8 Southern Caribbean $ 594 pp $ 784 pp $ 1159 pp $ 2259 pp $ 74 pp/pd
2022-01-23 Explorer Of The Seas 7 Southern Caribbean $ 1755 pp $ 2184 pp N/A $ 4670 pp $ 59 pp/pd
2022-01-24 Silhouette 11 Southern Caribbean $ 2288 pp $ 2508 pp $ 3406 pp $ 13940 pp $ 133 pp/pd
2022-01-29 Enchanted Princess 20 Caribbean $ 2298 pp N/A $ 4018 pp $ 6341 pp $ 115 pp/pd
2022-01-30 Crystal Serenity 10 World Cruise N/A $ 3143 pp $ 4207 pp $ 6848 pp $ 314 pp/pd
2022-02-02 Getaway 9 Caribbean $ 2904 pp $ 1406 pp $ 1861 pp $ 1960 pp $ 156 pp/pd
2022-02-05 Silver Spirit 9 Caribbean N/A N/A N/A $ 5400 pp $ 600 pp/pd
2022-02-07 Riviera 12 Southern Caribbean N/A N/A $ 4699 pp $ 6499 pp $ 392 pp/pd
2022-02-08 Enchanted Princess 20 Caribbean $ 2343 pp N/A $ 4317 pp $ 7673 pp $ 117 pp/pd
2022-02-11 Sirena 12 Southern Caribbean $ 2899 pp $ 3249 pp $ 4899 pp N/A $ 242 pp/pd
2022-02-12 Freedom 8 Southern Caribbean $ 594 pp $ 764 pp $ 1249 pp $ 2359 pp $ 74 pp/pd
2022-02-13 Grandeur Of The Seas 7 Southern Caribbean $ 700 pp $ 922 pp N/A $ 4400 pp $ 45 pp/pd
2022-02-14 Silhouette 11 Southern Caribbean $ 2596 pp $ 2737 pp $ 3344 pp $ 8220 pp $ 161 pp/pd
2022-02-18 Enchanted Princess 20 Caribbean $ 2343 pp N/A $ 4209 pp $ 5798 pp $ 117 pp/pd
2022-02-19 Horizon 8 Southern Caribbean $ 644 pp $ 904 pp $ 1249 pp $ 2469 pp $ 81 pp/pd
2022-02-23 Nieuw Statendam 21 Southern Caribbean $ 3089 pp $ 3469 pp $ 4609 pp $ 6789 pp $ 147 pp/pd
2022-02-26 Magic 8 Southern Caribbean $ 544 pp $ 854 pp $ 1269 pp $ 1914 pp $ 68 pp/pd
2022-02-27 Emerald Princess 14 Caribbean $ 1398 pp $ 1543 pp N/A N/A $ 100 pp/pd
2022-02-28 Enchanted Princess 20 Caribbean $ 2298 pp $ 4008 pp $ 4018 pp $ 5698 pp $ 115 pp/pd
2022-03-04 Equinox 9 Southern Caribbean $ 1671 pp $ 1919 pp $ 2329 pp $ 15287 pp $ 84 pp/pd
2022-03-05 Sirena 12 Southern Caribbean $ 2449 pp $ 2599 pp $ 3849 pp $ 4949 pp $ 204 pp/pd
2022-03-06 Nieuw Statendam 21 Southern Caribbean $ 3089 pp $ 3469 pp $ 4609 pp $ 6509 pp $ 147 pp/pd
2022-03-07 Silhouette 11 Southern Caribbean $ 2376 pp $ 2535 pp $ 3239 pp $ 10068 pp $ 142 pp/pd
2022-03-10 Enchanted Princess 20 Caribbean $ 2348 pp $ 4104 pp $ 4114 pp $ 6098 pp $ 117 pp/pd
2022-03-12 Freedom 8 Southern Caribbean $ 699 pp $ 839 pp N/A N/A $ 87 pp/pd
2022-03-13 Epic 7 Caribbean $ 895 pp N/A $ 1504 pp $ 1868 pp $ 128 pp/pd
2022-03-16 Nieuw Statendam 21 Southern Caribbean $ 3089 pp $ 3469 pp $ 4609 pp $ 6319 pp $ 147 pp/pd
2022-03-17 Sirena 12 Southern Caribbean $ 2399 pp $ 2549 pp $ 3749 pp $ 4999 pp $ 200 pp/pd
2022-03-19 Seabourn Odyssey 14 Southern Caribbean N/A $ 5664 pp N/A $ 7164 pp $ 405 pp/pd
2022-03-20 Explorer Of The Seas 7 Southern Caribbean $ 2076 pp $ 2999 pp N/A $ 5826 pp $ 61 pp/pd
2022-03-26 Seabourn Odyssey 7 Southern Caribbean N/A $ 3134 pp N/A $ 4134 pp $ 448 pp/pd
2022-03-27 Grandeur Of The Seas 7 Southern Caribbean $ 631 pp $ 967 pp N/A $ 4381 pp $ 30 pp/pd
2022-03-28 Silhouette 11 Southern Caribbean $ 2227 pp $ 2517 pp $ 3019 pp $ 13790 pp $ 134 pp/pd
2022-04-02 Emerald Princess 14 Caribbean $ 1398 pp $ 1543 pp $ 3198 pp $ 4054 pp $ 100 pp/pd
2022-04-16 Seabourn Odyssey 33 Panama Canal N/A $ 12428 pp N/A $ 13428 pp $ 377 pp/pd
2022-04-17 Explorer Of The Seas 7 Southern Caribbean $ 1755 pp $ 2141 pp N/A $ 4541 pp $ 81 pp/pd
2022-04-23 Magic 8 Southern Caribbean $ 689 pp $ 949 pp $ 1239 pp $ 2496 pp $ 86 pp/pd
2022-04-24 Grandeur Of The Seas 10 Repositioning $ 991 pp $ 1191 pp N/A $ 4020 pp $ 49 pp/pd
2022-04-30 Horizon 8 Southern Caribbean $ 649 pp $ 849 pp $ 1199 pp $ 2289 pp $ 81 pp/pd
2022-05-06 Equinox 9 Southern Caribbean $ 2031 pp $ 2087 pp $ 2459 pp $ 5031 pp $ 145 pp/pd
2022-05-07 Mariner Of The Seas 8 Southern Caribbean $ 1241 pp $ 1941 pp N/A $ 4767 pp $ 93 pp/pd
2022-05-14 Explorer Of The Seas 8 Southern Caribbean $ 1250 pp $ 2082 pp N/A $ 3776 pp $ 53 pp/pd
2022-05-28 Horizon 8 Southern Caribbean $ 839 pp $ 1039 pp $ 1379 pp $ 2694 pp $ 105 pp/pd
2022-06-11 Explorer Of The Seas 8 Southern Caribbean $ 1607 pp $ 1778 pp N/A $ 6127 pp $ 82 pp/pd
2022-06-18 Mariner Of The Seas 8 Southern Caribbean $ 2153 pp $ 1957 pp N/A $ 5174 pp $ 109 pp/pd
2022-06-25 Horizon 8 Southern Caribbean $ 1019 pp $ 1259 pp $ 1699 pp $ 2739 pp $ 127 pp/pd
2022-07-09 Mariner Of The Seas 8 Southern Caribbean $ 2303 pp $ 2517 pp N/A $ 5174 pp $ 119 pp/pd
2022-07-23 Horizon 8 Southern Caribbean $ 1029 pp $ 1269 pp $ 1709 pp $ 2789 pp $ 129 pp/pd
2022-08-06 Explorer Of The Seas 8 Southern Caribbean $ 1329 pp $ 1768 pp N/A $ 3048 pp $ 82 pp/pd
2022-08-13 Mariner Of The Seas 8 Southern Caribbean $ 1917 pp $ 2474 pp N/A $ 3546 pp $ 103 pp/pd
2022-08-20 Horizon 8 Southern Caribbean $ 769 pp $ 1019 pp $ 1189 pp $ 1909 pp $ 96 pp/pd
2022-09-03 Explorer Of The Seas 8 Southern Caribbean $ 1408 pp $ 2141 pp N/A $ 3540 pp $ 70 pp/pd
2022-09-08 Equinox 9 Southern Caribbean $ 1319 pp $ 1407 pp $ 1583 pp $ 3031 pp $ 147 pp/pd
2022-09-17 Equinox 9 Southern Caribbean $ 1359 pp $ 1447 pp $ 1623 pp $ 3079 pp $ 151 pp/pd
2022-10-01 Explorer Of The Seas 8 Southern Caribbean $ 927 pp $ 1051 pp N/A $ 2551 pp $ 65 pp/pd
2022-10-06 Equinox 9 Southern Caribbean $ 1279 pp $ 1359 pp $ 1519 pp $ 2839 pp $ 142 pp/pd
2022-10-15 Prima 12 Caribbean $ 1749 pp $ 2049 pp $ 2949 pp $ 5879 pp $ 146 pp/pd
2022-10-22 Freedom 8 Southern Caribbean $ 649 pp $ 779 pp $ 1064 pp $ 1799 pp $ 81 pp/pd
2022-10-23 Seven Seas Navigator 14 Bermuda N/A N/A N/A $ 8299 pp $ 593 pp/pd
2022-10-29 Explorer Of The Seas 8 Southern Caribbean $ 1030 pp $ 1142 pp N/A $ 2595 pp $ 68 pp/pd
2022-10-30 Rotterdam 21 Southern Caribbean $ 3439 pp $ 3999 pp $ 4469 pp $ 8459 pp $ 164 pp/pd
2022-10-31 Prima 11 Caribbean $ 1829 pp $ 2029 pp $ 3099 pp $ 5949 pp $ 166 pp/pd
2022-11-03 Equinox 9 Southern Caribbean $ 1375 pp $ 1455 pp $ 1615 pp $ 3247 pp $ 153 pp/pd
2022-11-05 Enchanted Princess 14 Caribbean $ 1398 pp $ 2577 pp $ 2518 pp $ 3798 pp $ 100 pp/pd
2022-11-09 Rotterdam 21 Southern Caribbean $ 3439 pp $ 3999 pp $ 4379 pp $ 8459 pp $ 164 pp/pd
2022-11-12 Explorer Of The Seas 8 Southern Caribbean $ 1092 pp $ 1637 pp N/A $ 3003 pp $ 78 pp/pd
2022-11-13 Silver Moon 11 Caribbean N/A N/A N/A $ 6390 pp $ 581 pp/pd
2022-11-19 Jewel Of The Seas 8 Southern Caribbean $ 2136 pp $ 2372 pp N/A $ 4664 pp $ 124 pp/pd
2022-11-20 Rotterdam 21 Southern Caribbean $ 3239 pp $ 3809 pp $ 4379 pp $ 8179 pp $ 154 pp/pd
2022-11-21 Edge 11 Transcanal $ 5478 pp $ 6218 pp $ 7158 pp $ 4799 pp $ 188 pp/pd
2022-11-24 Jewel 9 Panama Canal $ 1021 pp $ 1224 pp $ 1875 pp $ 2225 pp $ 113 pp/pd
2022-11-26 Explorer Of The Seas 8 Southern Caribbean $ 920 pp $ 1656 pp N/A $ 3003 pp $ 69 pp/pd
2022-11-27 Voyager Of The Seas 7 Southern Caribbean $ 1091 pp $ 1599 pp N/A $ 2959 pp $ 92 pp/pd
2022-11-28 Sirena 22 World Cruise N/A $ 3249 pp $ 5399 pp $ 7449 pp $ 148 pp/pd
2022-11-30 Rotterdam 21 Southern Caribbean $ 3039 pp $ 3619 pp $ 4189 pp $ 7799 pp $ 145 pp/pd
2022-12-03 Jewel 9 Panama Canal $ 923 pp $ 1224 pp $ 1889 pp $ 2148 pp $ 103 pp/pd
2022-12-04 Rhapsody Of The Seas 14 Southern Caribbean $ 2933 pp $ 3426 pp N/A $ 8033 pp $ 77 pp/pd
2022-12-05 Vision Of The Seas 11 Southern Caribbean $ 2676 pp $ 2849 pp N/A $ 7070 pp $ 81 pp/pd
2022-12-10 Seabourn Ovation 17 Caribbean N/A N/A N/A $ 9149 pp $ 538 pp/pd
2022-12-11 Rotterdam 17 Eastern Caribbean $ 2859 pp $ 3519 pp $ 3899 pp $ 7979 pp $ 168 pp/pd
2022-12-17 Seabourn Ovation 21 Caribbean N/A N/A N/A $ 11589 pp $ 552 pp/pd
2022-12-18 Regal Princess 16 Caribbean $ 2648 pp N/A $ 3327 pp $ 4898 pp $ 166 pp/pd
2022-12-20 Sirena 22 World Cruise $ 4799 pp $ 4999 pp $ 7399 pp $ 11049 pp $ 218 pp/pd
2022-12-21 Pearl 12 Panama Canal $ 1735 pp $ 2183 pp $ 3548 pp $ 4248 pp $ 145 pp/pd
2022-12-22 Edge 11 Transcanal $ 3167 pp $ 3511 pp $ 4047 pp $ 5399 pp $ 233 pp/pd
2022-12-23 Encore 11 Caribbean $ 2673 pp $ 3177 pp $ 3576 pp $ 3947 pp $ 243 pp/pd
2022-12-26 Vision Of The Seas 11 Southern Caribbean $ 3255 pp $ 3834 pp N/A $ 10391 pp $ 126 pp/pd
2022-12-28 Rotterdam 17 Southern Caribbean $ 3419 pp $ 4049 pp $ 4519 pp $ 9839 pp $ 201 pp/pd
2022-12-29 Enchanted Princess 20 Caribbean $ 2298 pp N/A $ 3780 pp $ 4948 pp $ 115 pp/pd
2022-12-30 Sirena 12 Southern Caribbean $ 2849 pp $ 2949 pp $ 4449 pp $ 6549 pp $ 237 pp/pd
2022-12-31 Magic 8 Southern Caribbean $ 959 pp $ 1179 pp $ 1439 pp $ 2224 pp $ 120 pp/pd
2023-01-02 Edge 11 Southern Caribbean $ 4448 pp $ 5248 pp $ 6148 pp $ 31199 pp $ 210 pp/pd
2023-01-04 Rotterdam 21 Southern Caribbean $ 3909 pp $ 4909 pp $ 5569 pp $ 11459 pp $ 186 pp/pd
2023-01-06 Voyager Of The Seas 9 Southern Caribbean $ 1939 pp $ 2340 pp N/A $ 4017 pp $ 124 pp/pd
2023-01-07 Explorer Of The Seas 8 Southern Caribbean $ 1387 pp $ 1640 pp N/A $ 3281 pp $ 99 pp/pd
2023-01-08 Enchanted Princess 20 Caribbean $ 1998 pp $ 3340 pp $ 3350 pp $ 4398 pp $ 100 pp/pd
2023-01-12 Equinox 9 Southern Caribbean $ 2519 pp $ 2579 pp $ 2989 pp $ 4329 pp $ 193 pp/pd
2023-01-14 Freedom 8 Southern Caribbean $ 619 pp $ 749 pp $ 1019 pp $ 1519 pp $ 77 pp/pd
2023-01-15 Rhapsody Of The Seas 14 Southern Caribbean $ 3062 pp $ 3555 pp N/A $ 7883 pp $ 81 pp/pd
2023-01-16 Vision Of The Seas 11 Southern Caribbean $ 2612 pp $ 3620 pp N/A $ 7520 pp $ 94 pp/pd
2023-01-21 Seven Seas Splendor 11 Eastern Caribbean N/A N/A N/A $ 6799 pp $ 618 pp/pd
2023-01-22 Epic 7 Caribbean $ 853 pp N/A $ 1364 pp $ 1511 pp $ 122 pp/pd
2023-01-23 Seven Seas Navigator 11 Eastern Caribbean N/A N/A N/A $ 5799 pp $ 527 pp/pd
2023-01-26 Jewel 9 Panama Canal $ 923 pp $ 1224 pp $ 1798 pp $ 2127 pp $ 103 pp/pd
2023-01-28 Millennium 7 Southern Caribbean $ 2578 pp $ 2798 pp $ 3158 pp N/A $ 166 pp/pd
2023-01-29 Epic 7 Caribbean $ 853 pp N/A $ 1392 pp $ 1539 pp $ 122 pp/pd
2023-02-04 Explorer Of The Seas 8 Southern Caribbean $ 1489 pp $ 1654 pp N/A $ 3281 pp $ 99 pp/pd
2023-02-05 Epic 7 Caribbean $ 874 pp N/A $ 1413 pp $ 1560 pp $ 125 pp/pd
2023-02-06 Vision Of The Seas 11 Southern Caribbean $ 2720 pp $ 3749 pp N/A $ 9341 pp $ 98 pp/pd
2023-02-08 Silver Dawn 10 Caribbean N/A N/A N/A $ 6210 pp $ 621 pp/pd
2023-02-09 Equinox 9 Southern Caribbean $ 2529 pp $ 2639 pp $ 2969 pp $ 10449 pp $ 211 pp/pd
2023-02-11 Freedom 8 Southern Caribbean $ 649 pp $ 779 pp $ 1069 pp $ 1579 pp $ 81 pp/pd
2023-02-12 Rhapsody Of The Seas 14 Southern Caribbean $ 3126 pp $ 3662 pp N/A $ 8847 pp $ 84 pp/pd
2023-02-13 Jewel 9 Panama Canal $ 923 pp $ 1224 pp $ 1798 pp $ 2127 pp $ 103 pp/pd
2023-02-15 Rotterdam 21 Southern Caribbean $ 4039 pp $ 4999 pp $ 5669 pp $ 11739 pp $ 192 pp/pd
2023-02-17 Jewel Of The Seas 8 Southern Caribbean $ 2136 pp $ 2372 pp N/A $ 4664 pp $ 103 pp/pd
2023-02-18 Explorer Of The Seas 8 Southern Caribbean $ 1387 pp $ 1920 pp N/A $ 3281 pp $ 99 pp/pd
2023-02-19 Sirena 12 Southern Caribbean $ 2849 pp $ 3099 pp $ 4249 pp $ 5549 pp $ 237 pp/pd
2023-02-22 Jewel 10 Panama Canal $ 1021 pp $ 1322 pp $ 1959 pp $ 2358 pp $ 102 pp/pd
2023-02-25 Rotterdam 21 Southern Caribbean $ 4039 pp $ 4999 pp $ 5669 pp $ 11739 pp $ 192 pp/pd
2023-02-26 Epic 7 Caribbean $ 951 pp N/A $ 1441 pp $ 1595 pp $ 136 pp/pd
2023-02-27 Vision Of The Seas 11 Southern Caribbean $ 2549 pp $ 3620 pp N/A $ 8484 pp $ 94 pp/pd
2023-03-03 Sirena 7 Southern Caribbean $ 1549 pp $ 1699 pp $ 2249 pp $ 3049 pp $ 221 pp/pd
2023-03-04 Explorer Of The Seas 8 Southern Caribbean $ 1392 pp $ 1920 pp N/A $ 3281 pp $ 99 pp/pd
2023-03-05 Epic 7 Caribbean $ 986 pp N/A $ 1462 pp $ 1609 pp $ 141 pp/pd
2023-03-08 Rotterdam 21 Southern Caribbean $ 4039 pp $ 4999 pp $ 5669 pp $ 11639 pp $ 192 pp/pd
2023-03-09 Equinox 9 Southern Caribbean $ 2629 pp $ 2689 pp $ 3089 pp $ 4229 pp $ 204 pp/pd
2023-03-10 Sirena 10 Southern Caribbean $ 2249 pp $ 2499 pp $ 3349 pp $ 4349 pp $ 225 pp/pd
2023-03-11 Freedom 8 Southern Caribbean $ 719 pp $ 859 pp $ 1159 pp $ 1639 pp $ 90 pp/pd
2023-03-12 Rhapsody Of The Seas 7 Southern Caribbean $ 1883 pp $ 2055 pp N/A $ 4005 pp $ 97 pp/pd
2023-03-13 Silver Dawn 10 Caribbean N/A N/A N/A $ 6120 pp $ 612 pp/pd
2023-03-18 Explorer Of The Seas 8 Southern Caribbean $ 1484 pp $ 1659 pp N/A $ 3281 pp $ 99 pp/pd
2023-03-19 Epic 7 Caribbean $ 986 pp N/A $ 1462 pp $ 1609 pp $ 141 pp/pd
2023-03-20 Vision Of The Seas 11 Southern Caribbean $ 2549 pp $ 3620 pp N/A $ 9062 pp $ 94 pp/pd
2023-03-25 Millennium 7 Southern Caribbean $ 2798 pp $ 2998 pp $ 3378 pp $ 4439 pp $ 180 pp/pd
2023-03-26 Epic 7 Caribbean $ 986 pp N/A $ 1462 pp $ 1609 pp $ 141 pp/pd
2023-03-27 Edge 11 Transcanal $ 3399 pp $ 6018 pp $ 6858 pp $ 5699 pp $ 232 pp/pd
2023-03-29 Rotterdam 17 Eastern Caribbean $ 3239 pp $ 3809 pp $ 4329 pp $ 9079 pp $ 191 pp/pd
2023-04-01 Explorer Of The Seas 8 Southern Caribbean $ 1513 pp $ 1968 pp N/A $ 4074 pp $ 94 pp/pd
2023-04-02 Rhapsody Of The Seas 7 Southern Caribbean $ 1883 pp $ 2055 pp N/A $ 4005 pp $ 97 pp/pd
2023-04-06 Equinox 9 Southern Caribbean $ 2679 pp $ 2759 pp $ 3139 pp $ 3979 pp $ 209 pp/pd
2023-04-08 Freedom 8 Southern Caribbean $ 719 pp $ 859 pp $ 1159 pp $ 1639 pp $ 90 pp/pd
2023-04-09 Voyager Of The Seas 7 Southern Caribbean $ 1480 pp $ 1894 pp N/A $ 3894 pp $ 120 pp/pd
2023-04-10 Vision Of The Seas 11 Southern Caribbean $ 2484 pp $ 3470 pp N/A $ 7776 pp $ 89 pp/pd
2023-04-15 Explorer Of The Seas 8 Southern Caribbean $ 1513 pp $ 2094 pp N/A $ 3823 pp $ 94 pp/pd
2023-04-21 Seven Seas Navigator 14 Eastern Caribbean N/A N/A N/A $ 6399 pp $ 457 pp/pd
2023-04-29 Horizon 8 Southern Caribbean $ 759 pp $ 939 pp $ 1319 pp $ 2061 pp $ 95 pp/pd
2023-05-20 Celebration 8 Southern Caribbean $ 909 pp $ 1139 pp $ 1319 pp $ 2009 pp $ 114 pp/pd
2023-05-27 Horizon 8 Southern Caribbean $ 899 pp $ 1099 pp $ 1469 pp $ 2261 pp $ 112 pp/pd
2023-06-17 Celebration 8 Southern Caribbean $ 1039 pp $ 1279 pp $ 1479 pp $ 2209 pp $ 130 pp/pd
2023-06-24 Horizon 8 Southern Caribbean $ 999 pp $ 1219 pp $ 1659 pp $ 2419 pp $ 125 pp/pd
2023-07-15 Celebration 8 Southern Caribbean $ 1049 pp $ 1289 pp $ 1469 pp $ 2209 pp $ 131 pp/pd
2023-07-22 Horizon 8 Southern Caribbean $ 989 pp $ 1209 pp $ 1649 pp $ 2401 pp $ 124 pp/pd
2023-08-05 Mardi Gras 8 Southern Caribbean $ 1009 pp $ 1249 pp $ 1439 pp $ 2159 pp $ 126 pp/pd
2023-08-12 Celebration 8 Southern Caribbean $ 989 pp $ 1229 pp $ 1409 pp $ 2159 pp $ 124 pp/pd
2023-08-19 Horizon 8 Southern Caribbean $ 739 pp $ 899 pp $ 1249 pp $ 1901 pp $ 92 pp/pd
2023-09-09 Celebration 8 Southern Caribbean $ 689 pp $ 919 pp $ 1089 pp $ 1809 pp $ 86 pp/pd
2023-09-16 Horizon 8 Southern Caribbean $ 659 pp $ 809 pp $ 1109 pp $ 1751 pp $ 82 pp/pd
2023-10-14 Horizon 8 Southern Caribbean $ 659 pp $ 809 pp $ 1109 pp $ 1751 pp $ 82 pp/pd
2023-10-31 Seven Seas Mariner 15 Bermuda N/A N/A N/A $ 10299 pp $ 687 pp/pd
2023-11-11 Horizon 8 Southern Caribbean $ 659 pp $ 809 pp $ 1109 pp $ 1751 pp $ 82 pp/pd
2023-11-25 Horizon 8 Southern Caribbean $ 659 pp $ 809 pp $ 1109 pp $ 1759 pp $ 82 pp/pd
2023-12-03 Glory 14 Panama Canal $ 1079 pp $ 1439 pp $ 2269 pp $ 3669 pp $ 77 pp/pd
2023-12-08 Silver Shadow 10 Caribbean N/A N/A N/A $ 5300 pp $ 530 pp/pd
2023-12-09 Horizon 8 Southern Caribbean $ 659 pp $ 829 pp $ 1169 pp $ 1831 pp $ 82 pp/pd
2023-12-23 Horizon 8 Southern Caribbean $ 1069 pp $ 1359 pp $ 1819 pp $ 2681 pp $ 134 pp/pd
2024-01-06 Horizon 8 Southern Caribbean $ 669 pp $ 849 pp $ 1219 pp $ 1961 pp $ 84 pp/pd
2024-01-15 Silver Dawn 11 Caribbean N/A N/A N/A $ 6500 pp $ 591 pp/pd
2024-02-05 Seven Seas Grandeur 12 Eastern Caribbean N/A N/A N/A $ 6999 pp $ 583 pp/pd
2024-02-09 Seven Seas Splendor 17 Eastern Caribbean N/A N/A N/A $ 9499 pp $ 559 pp/pd
2024-02-16 Seven Seas Splendor 10 Eastern Caribbean N/A N/A N/A $ 5999 pp $ 600 pp/pd
2024-02-17 Horizon 8 Southern Caribbean $ 719 pp $ 899 pp $ 1309 pp $ 2051 pp $ 90 pp/pd
2024-03-07 Seven Seas Splendor 10 Eastern Caribbean N/A N/A N/A $ 5999 pp $ 600 pp/pd
2024-03-08 Silver Dawn 11 Caribbean N/A N/A N/A $ 6500 pp $ 591 pp/pd
2024-03-25 Seven Seas Grandeur 16 Eastern Caribbean N/A N/A N/A $ 9999 pp $ 625 pp/pd
2024-03-30 Horizon 8 Southern Caribbean $ 839 pp $ 1019 pp $ 1429 pp $ 2171 pp $ 105 pp/pd
2024-04-27 Horizon 8 Southern Caribbean $ 759 pp $ 939 pp $ 1319 pp $ 2061 pp $ 95 pp/pd